Time;durP1;ratioP1;P1;durP2;ratioP2;P2;SDS_P1;SDS_P2;PMS_P1;PMS_P2;Temp;Humidity;BMP_temperature;BMP_pressure;BME280_temperature;BME280_humidity;BME280_pressure;Samples;Min_cycle;Max_cycle;Signal;HPM_P1;HPM_P2
2021/07/27 00:02:13;;;;;;;;;;;;;;;20.11;91.46;95917.81;3568278;40;19940;-62
2021/07/27 00:04:40;;;;;;;;;;;;;;;20.06;92.57;95917.97;3573362;40;19946;-62
2021/07/27 00:07:08;;;;;;;;;;;;;;;20.01;92.98;95904.72;3585410;39;19946;-62
2021/07/27 00:09:35;;;;;;;;;;;;;;;19.95;92.78;95909.44;3589723;39;20295;-61
2021/07/27 00:12:03;;;;;;;;;;;;;;;19.91;93.70;95914.66;3581786;40;19946;-62
2021/07/27 00:14:31;;;;;;;;;;;;;;;19.90;94.46;95906.97;3569342;40;20230;-63
2021/07/27 00:16:58;;;;;;;;;;;;;;;19.90;94.42;95912.31;3581164;40;19941;-62
2021/07/27 00:19:26;;;;;;;;;;;;;;;19.89;94.75;95906.16;3591687;39;19944;-62
2021/07/27 00:21:54;;;;;;;;;;;;;;;19.90;94.00;95907.72;3585282;40;20296;-62
2021/07/27 00:24:26;;;;;;;;;;;;;;;19.88;94.28;95904.56;3574978;40;19936;-63
2021/07/27 00:26:54;;;;;;;;;;;;;;;19.86;94.68;95905.97;3567965;40;19940;-62
2021/07/27 00:29:22;;;;;;;;;;;;;;;19.83;95.17;95904.72;3584684;39;19936;-62
2021/07/27 00:31:49;;;;;;;;;;;;;;;19.79;95.29;95898.41;3575298;40;19962;-62
2021/07/27 00:34:18;;;;;;;;;;;;;;;19.69;95.89;95898.75;3574112;40;20208;-62
2021/07/27 00:36:46;;;;;;;;;;;;;;;19.63;96.49;95901.56;3583061;39;20808;-63
2021/07/27 00:39:13;;;;;;;;;;;;;;;19.60;97.54;95894.19;3578592;40;19964;-62
2021/07/27 00:41:40;;;;;;;;;;;;;;;19.56;97.48;95887.09;3577837;40;19948;-62
2021/07/27 00:44:08;;;;;;;;;;;;;;;19.52;97.99;95887.72;3575863;40;19940;-62
2021/07/27 00:46:36;;;;;;;;;;;;;;;19.48;98.43;95892.13;3572133;40;19940;-62
2021/07/27 00:49:03;;;;;;;;;;;;;;;19.45;98.93;95899.97;3567867;40;19940;-62
2021/07/27 00:51:31;;;;;;;;;;;;;;;19.41;99.37;95885.66;3572458;40;20351;-62
2021/07/27 00:53:59;;;;;;;;;;;;;;;19.36;98.71;95895.41;3581639;39;19933;-62
2021/07/27 00:56:27;;;;;;;;;;;;;;;19.34;100.00;95892.25;3571446;40;20268;-62
2021/07/27 00:58:54;;;;;;;;;;;;;;;19.21;100.00;95877.91;3578690;40;20046;-62
2021/07/27 01:01:22;;;;;;;;;;;;;;;19.23;99.18;95892.88;3584626;40;19941;-62
2021/07/27 01:03:50;;;;;;;;;;;;;;;19.19;100.00;95890.03;3590190;39;19938;-62
2021/07/27 01:06:17;;;;;;;;;;;;;;;19.13;100.00;95876.03;3577272;40;19943;-62
2021/07/27 01:08:45;;;;;;;;;;;;;;;19.09;100.00;95885.75;3584609;40;19932;-62
2021/07/27 01:11:23;;;;;;;;;;;;;;;19.03;100.00;95882.44;3583839;40;19941;-63
2021/07/27 01:13:51;;;;;;;;;;;;;;;18.99;100.00;95876.16;3580053;40;19978;-62
2021/07/27 01:16:23;;;;;;;;;;;;;;;18.97;100.00;95873.00;3585710;40;19948;-62
2021/07/27 01:19:05;;;;;;;;;;;;;;;18.91;100.00;95866.19;3564153;40;19939;-62
2021/07/27 01:41:07;;;;;;;;;;;;;;;18.55;100.00;95888.53;3591392;39;19944;-62
2021/07/27 01:43:35;;;;;;;;;;;;;;;18.50;100.00;95884.13;3583936;40;19947;-62
2021/07/27 01:46:03;;;;;;;;;;;;;;;18.45;100.00;95894.94;3582738;40;19938;-62
2021/07/27 01:48:31;;;;;;;;;;;;;;;18.39;100.00;95890.81;3586124;40;20193;-62
2021/07/27 01:51:05;;;;;;;;;;;;;;;18.36;100.00;95891.44;3583389;40;19947;-62
2021/07/27 01:53:38;;;;;;;;;;;;;;;18.30;100.00;95898.78;3580760;40;19950;-62
2021/07/27 01:56:06;;;;;;;;;;;;;;;18.24;100.00;95894.69;3579138;40;20177;-62
2021/07/27 01:58:33;;;;;;;;;;;;;;;18.13;100.00;95886.13;3574422;40;20304;-62
2021/07/27 02:01:01;;;;;;;;;;;;;;;18.10;100.00;95903.53;3571384;40;19932;-62
2021/07/27 02:03:29;;;;;;;;;;;;;;;18.02;100.00;95903.47;3581594;39;19962;-62
2021/07/27 02:05:57;;;;;;;;;;;;;;;17.95;100.00;95909.22;3582193;40;19940;-62
2021/07/27 02:08:24;;;;;;;;;;;;;;;17.87;100.00;95901.94;3584748;39;20630;-62
2021/07/27 02:10:57;;;;;;;;;;;;;;;17.86;100.00;95893.13;3584712;40;19939;-62
2021/07/27 02:13:45;;;;;;;;;;;;;;;17.80;100.00;95891.69;3582282;40;19940;-62
2021/07/27 02:16:13;;;;;;;;;;;;;;;17.76;100.00;95890.69;3579675;40;19940;-62
2021/07/27 02:18:40;;;;;;;;;;;;;;;17.72;100.00;95903.09;3576931;40;19938;-62
2021/07/27 02:21:07;;;;;;;;;;;;;;;17.70;100.00;95894.59;3584828;40;19936;-62
2021/07/27 02:23:35;;;;;;;;;;;;;;;17.68;100.00;95901.00;3582100;40;19971;-62
2021/07/27 02:26:04;;;;;;;;;;;;;;;17.68;100.00;95893.00;3581729;40;19938;-62
2021/07/27 02:28:31;;;;;;;;;;;;;;;17.69;100.00;95901.78;3584302;39;19948;-62
2021/07/27 02:31:01;;;;;;;;;;;;;;;17.61;100.00;95889.97;3581916;39;19944;-62
2021/07/27 02:33:33;;;;;;;;;;;;;;;17.59;100.00;95889.50;3583493;40;20205;-62
2021/07/27 02:36:00;;;;;;;;;;;;;;;17.57;100.00;95893.53;3590083;39;19932;-62
2021/07/27 02:38:28;;;;;;;;;;;;;;;17.55;100.00;95895.69;3588747;40;19936;-62
2021/07/27 02:40:55;;;;;;;;;;;;;;;17.48;100.00;95893.44;3582493;40;20401;-62
2021/07/27 02:43:23;;;;;;;;;;;;;;;17.48;100.00;95904.91;3583929;39;19940;-61
2021/07/27 02:45:50;;;;;;;;;;;;;;;17.50;100.00;95900.09;3582994;40;19940;-62
2021/07/27 02:48:17;;;;;;;;;;;;;;;17.47;100.00;95894.56;3591545;39;20304;-62
2021/07/27 02:50:46;;;;;;;;;;;;;;;17.37;100.00;95890.22;3584668;40;19942;-62
2021/07/27 02:53:14;;;;;;;;;;;;;;;17.35;100.00;95903.06;3582810;40;19932;-62
2021/07/27 02:55:42;;;;;;;;;;;;;;;17.27;100.00;95907.22;3583674;40;19940;-62
2021/07/27 02:58:10;;;;;;;;;;;;;;;17.25;100.00;95908.63;3582644;40;19933;-62
2021/07/27 03:00:37;;;;;;;;;;;;;;;17.19;100.00;95916.72;3576010;40;19932;-62
2021/07/27 03:03:05;;;;;;;;;;;;;;;17.15;100.00;95921.06;3571898;40;19951;-61
2021/07/27 03:05:33;;;;;;;;;;;;;;;17.13;100.00;95922.44;3579346;40;19944;-62
2021/07/27 03:08:09;;;;;;;;;;;;;;;17.10;100.00;95928.38;3591464;39;19938;-62
2021/07/27 03:10:37;;;;;;;;;;;;;;;17.11;100.00;95929.97;3573297;40;19947;-62
2021/07/27 03:13:04;;;;;;;;;;;;;;;17.10;100.00;95936.38;3577740;40;19939;-62
2021/07/27 03:15:32;;;;;;;;;;;;;;;17.09;100.00;95932.13;3584752;40;19942;-62
2021/07/27 03:18:00;;;;;;;;;;;;;;;17.11;100.00;95940.63;3590010;39;19940;-62
2021/07/27 03:20:28;;;;;;;;;;;;;;;17.13;100.00;95941.91;3572142;40;19940;-62
2021/07/27 03:22:56;;;;;;;;;;;;;;;17.14;100.00;95932.81;3584338;40;20309;-63
2021/07/27 03:25:24;;;;;;;;;;;;;;;17.14;100.00;95937.34;3589280;39;19938;-63
2021/07/27 03:27:52;;;;;;;;;;;;;;;17.15;100.00;95941.59;3574520;39;19940;-63
2021/07/27 03:30:21;;;;;;;;;;;;;;;17.18;100.00;95949.00;3583194;40;19940;-62
2021/07/27 03:32:49;;;;;;;;;;;;;;;17.20;100.00;95944.94;3587477;39;19946;-61
2021/07/27 03:35:17;;;;;;;;;;;;;;;17.25;100.00;95951.28;3587455;39;19942;-62
2021/07/27 03:37:45;;;;;;;;;;;;;;;17.27;100.00;95949.88;3590550;39;19962;-63
2021/07/27 03:40:13;;;;;;;;;;;;;;;17.30;100.00;95959.16;3578567;40;19947;-62
2021/07/27 03:42:41;;;;;;;;;;;;;;;17.33;100.00;95959.38;3573088;40;19941;-62
2021/07/27 03:45:08;;;;;;;;;;;;;;;17.39;100.00;95959.25;3589266;39;19944;-62
2021/07/27 03:47:36;;;;;;;;;;;;;;;17.41;100.00;95957.88;3581984;40;19942;-62
2021/07/27 03:50:04;;;;;;;;;;;;;;;17.42;100.00;95959.44;3581040;40;19944;-61
2021/07/27 03:52:33;;;;;;;;;;;;;;;17.46;100.00;95955.09;3573609;40;19940;-62
2021/07/27 03:55:00;;;;;;;;;;;;;;;17.50;100.00;95953.41;3586696;39;19948;-62
2021/07/27 03:57:28;;;;;;;;;;;;;;;17.58;100.00;95949.25;3584068;39;19936;-62
2021/07/27 03:59:56;;;;;;;;;;;;;;;17.69;100.00;95955.13;3580387;40;19940;-62
2021/07/27 04:02:24;;;;;;;;;;;;;;;17.89;100.00;95958.47;3592350;39;20289;-61
2021/07/27 04:04:52;;;;;;;;;;;;;;;18.53;100.00;95960.97;3586141;39;20341;-62
2021/07/27 04:07:20;;;;;;;;;;;;;;;19.19;100.00;95967.56;3585461;40;19940;-62
2021/07/27 04:09:48;;;;;;;;;;;;;;;19.74;93.68;95960.16;3583833;40;19972;-62
2021/07/27 04:12:15;;;;;;;;;;;;;;;20.26;94.66;95962.81;3583870;40;20201;-62
2021/07/27 04:14:42;;;;;;;;;;;;;;;20.73;86.03;95962.09;3575260;40;19938;-62
2021/07/27 04:17:10;;;;;;;;;;;;;;;20.97;83.28;95965.38;3585372;40;19962;-62
2021/07/27 04:19:40;;;;;;;;;;;;;;;21.35;85.00;95962.66;3577902;40;19943;-62
2021/07/27 04:22:07;;;;;;;;;;;;;;;21.94;78.42;95955.66;3572343;40;19938;-62
2021/07/27 04:24:35;;;;;;;;;;;;;;;22.46;76.66;95969.03;3584654;40;19951;-62
2021/07/27 04:27:03;;;;;;;;;;;;;;;22.96;74.46;95961.81;3576213;40;19940;-62
2021/07/27 04:29:31;;;;;;;;;;;;;;;23.36;71.63;95960.41;3588041;39;20271;-62
2021/07/27 04:31:59;;;;;;;;;;;;;;;23.37;67.88;95961.97;3563330;40;19943;-62
2021/07/27 04:34:26;;;;;;;;;;;;;;;23.08;67.93;95963.75;3571940;40;19951;-62
2021/07/27 04:36:54;;;;;;;;;;;;;;;23.03;71.67;95964.72;3575751;40;19947;-61
2021/07/27 04:39:22;;;;;;;;;;;;;;;23.01;68.73;95962.38;3575473;40;19975;-62
2021/07/27 04:41:49;;;;;;;;;;;;;;;22.84;70.34;95957.19;3574328;40;19939;-63
2021/07/27 04:44:16;;;;;;;;;;;;;;;23.41;68.21;95952.09;3572804;40;19932;-63
2021/07/27 04:46:44;;;;;;;;;;;;;;;23.56;66.63;95953.31;3575705;40;19939;-61
2021/07/27 04:49:13;;;;;;;;;;;;;;;23.92;66.24;95955.16;3579933;40;19943;-61
2021/07/27 04:51:40;;;;;;;;;;;;;;;24.21;63.85;95950.56;3574642;40;19945;-61
2021/07/27 04:54:14;;;;;;;;;;;;;;;24.28;64.61;95923.03;3573683;40;19933;-60
2021/07/27 04:56:42;;;;;;;;;;;;;;;24.87;63.27;95929.56;3574389;40;19933;-60
2021/07/27 04:59:10;;;;;;;;;;;;;;;25.56;60.99;95933.84;3574690;40;19947;-61
2021/07/27 05:01:38;;;;;;;;;;;;;;;26.23;58.52;95942.94;3590864;39;19950;-64
2021/07/27 05:04:07;;;;;;;;;;;;;;;26.76;55.63;95944.28;3576668;40;20244;-62
2021/07/27 05:06:37;;;;;;;;;;;;;;;26.78;55.51;95947.38;3587843;39;19945;-64
2021/07/27 05:09:04;;;;;;;;;;;;;;;26.91;56.85;95948.78;3574562;40;19947;-61
2021/07/27 05:11:32;;;;;;;;;;;;;;;27.27;55.29;95948.59;3575712;40;19941;-61
2021/07/27 05:14:00;;;;;;;;;;;;;;;27.33;54.12;95944.41;3589829;39;20282;-61
2021/07/27 05:16:28;;;;;;;;;;;;;;;27.36;54.20;95930.13;3574291;40;20106;-61
2021/07/27 05:18:55;;;;;;;;;;;;;;;27.13;55.52;95935.63;3574272;40;19947;-61
2021/07/27 05:21:23;;;;;;;;;;;;;;;26.97;54.93;95939.25;3573216;40;19946;-61
2021/07/27 05:23:51;;;;;;;;;;;;;;;26.63;55.45;95933.63;3580463;39;19936;-61
2021/07/27 05:26:18;;;;;;;;;;;;;;;26.22;56.24;95944.06;3587570;39;20385;-61
2021/07/27 05:28:46;;;;;;;;;;;;;;;25.79;58.10;95941.28;3576363;40;19928;-62
2021/07/27 05:31:13;;;;;;;;;;;;;;;25.36;59.17;95935.69;3573979;40;19937;-62
2021/07/27 05:33:41;;;;;;;;;;;;;;;25.05;60.34;95937.28;3575453;40;20218;-61
2021/07/27 05:36:08;;;;;;;;;;;;;;;24.84;61.40;95945.66;3587475;39;19941;-62
2021/07/27 05:38:36;;;;;;;;;;;;;;;24.70;61.80;95951.47;3571670;40;19944;-62
2021/07/27 05:41:03;;;;;;;;;;;;;;;24.55;62.85;95947.59;3587564;39;19940;-62
2021/07/27 05:43:31;;;;;;;;;;;;;;;24.20;64.96;95950.91;3569653;40;19969;-62
2021/07/27 05:45:58;;;;;;;;;;;;;;;24.12;64.52;95955.31;3575191;40;19933;-62
2021/07/27 05:48:26;;;;;;;;;;;;;;;24.18;63.79;95953.16;3580186;40;20278;-62
2021/07/27 05:50:53;;;;;;;;;;;;;;;24.13;63.89;95946.13;3571255;40;20061;-62
2021/07/27 05:53:21;;;;;;;;;;;;;;;23.97;64.95;95950.66;3573773;40;19946;-62
2021/07/27 05:55:48;;;;;;;;;;;;;;;23.90;65.77;95941.22;3574344;40;19948;-62
2021/07/27 05:58:16;;;;;;;;;;;;;;;23.98;64.53;95953.03;3587045;39;20590;-65
2021/07/27 06:00:43;;;;;;;;;;;;;;;24.10;63.00;95954.88;3571260;40;19935;-64
2021/07/27 06:03:12;;;;;;;;;;;;;;;24.22;62.96;95948.66;3573484;40;19948;-63
2021/07/27 06:05:40;;;;;;;;;;;;;;;24.29;62.55;95956.16;3590378;39;20287;-64
2021/07/27 06:08:07;;;;;;;;;;;;;;;24.32;62.89;95953.56;3574902;40;19945;-63
2021/07/27 06:10:34;;;;;;;;;;;;;;;24.35;62.87;95944.00;3581300;40;19933;-64
2021/07/27 06:13:02;;;;;;;;;;;;;;;24.42;62.94;95952.28;3574394;40;19962;-63
2021/07/27 06:15:29;;;;;;;;;;;;;;;24.40;61.89;95949.91;3573663;40;19989;-62
2021/07/27 06:17:57;;;;;;;;;;;;;;;24.48;61.68;95952.81;3577788;40;19933;-63
2021/07/27 06:20:24;;;;;;;;;;;;;;;24.62;61.52;95949.69;3578317;40;19938;-63
2021/07/27 06:22:52;;;;;;;;;;;;;;;24.71;60.73;95958.44;3574766;40;20286;-62
2021/07/27 06:25:19;;;;;;;;;;;;;;;24.75;61.73;95951.22;3568832;40;19940;-62
2021/07/27 06:27:47;;;;;;;;;;;;;;;24.86;60.45;95951.50;3573000;40;20279;-66
2021/07/27 06:30:15;;;;;;;;;;;;;;;24.95;60.51;95944.00;3568882;40;20168;-64
2021/07/27 06:32:42;;;;;;;;;;;;;;;25.02;60.18;95944.16;3577021;40;19933;-63
2021/07/27 06:35:14;;;;;;;;;;;;;;;25.04;59.03;95935.75;3574348;40;19970;-64
2021/07/27 06:37:41;;;;;;;;;;;;;;;25.05;58.57;95948.09;3573580;40;19937;-66
2021/07/27 06:40:09;;;;;;;;;;;;;;;25.09;57.87;95940.88;3574692;40;20098;-63
2021/07/27 06:42:37;;;;;;;;;;;;;;;25.12;57.47;95944.78;3574011;40;19932;-62
2021/07/27 06:45:05;;;;;;;;;;;;;;;25.15;56.36;95941.38;3583894;40;20229;-62
2021/07/27 06:47:32;;;;;;;;;;;;;;;25.23;56.91;95947.72;3574724;40;19940;-61
2021/07/27 06:49:59;;;;;;;;;;;;;;;25.30;55.99;95945.97;3588524;39;19945;-61
2021/07/27 06:52:27;;;;;;;;;;;;;;;25.29;55.83;95952.50;3564870;40;19941;-61
2021/07/27 06:54:54;;;;;;;;;;;;;;;25.28;55.80;95944.78;3573048;40;19943;-61
2021/07/27 06:57:22;;;;;;;;;;;;;;;25.35;55.97;95944.94;3573939;40;19939;-61
2021/07/27 06:59:50;;;;;;;;;;;;;;;25.43;54.93;95951.31;3572479;40;19948;-62
2021/07/27 07:02:17;;;;;;;;;;;;;;;25.51;54.88;95947.63;3568184;40;19959;-62
2021/07/27 07:04:45;;;;;;;;;;;;;;;25.61;54.78;95954.41;3572169;40;19950;-62
2021/07/27 07:07:12;;;;;;;;;;;;;;;25.62;53.87;95953.25;3570630;40;19935;-63
2021/07/27 07:09:40;;;;;;;;;;;;;;;25.64;53.41;95951.00;3571657;40;19959;-62
2021/07/27 07:12:13;;;;;;;;;;;;;;;25.70;53.27;95956.91;3570430;40;20277;-62
2021/07/27 07:14:42;;;;;;;;;;;;;;;25.71;52.72;95953.84;3570705;40;19939;-64
2021/07/27 07:17:12;;;;;;;;;;;;;;;25.76;53.36;95953.56;3576184;40;19940;-63
2021/07/27 07:19:40;;;;;;;;;;;;;;;25.84;52.56;95949.09;3571159;40;19937;-61
2021/07/27 07:22:08;;;;;;;;;;;;;;;25.90;52.33;95953.06;3587782;39;19955;-62
2021/07/27 07:24:40;;;;;;;;;;;;;;;26.00;52.20;95957.16;3580355;39;19941;-62
2021/07/27 07:27:08;;;;;;;;;;;;;;;26.05;52.70;95958.78;3575262;40;20021;-62
2021/07/27 07:29:36;;;;;;;;;;;;;;;26.09;51.99;95965.81;3568096;40;20273;-64
2021/07/27 07:32:04;;;;;;;;;;;;;;;26.08;52.50;95974.28;3574896;40;20336;-62
2021/07/27 07:34:32;;;;;;;;;;;;;;;26.07;52.37;95973.50;3561053;40;19947;-62
2021/07/27 07:37:00;;;;;;;;;;;;;;;26.07;52.23;95978.91;3568422;40;19939;-62
2021/07/27 07:39:29;;;;;;;;;;;;;;;26.04;51.31;95979.59;3569692;40;19932;-61
2021/07/27 07:41:58;;;;;;;;;;;;;;;25.98;52.44;95983.75;3578120;40;19951;-61
2021/07/27 07:44:26;;;;;;;;;;;;;;;26.04;52.74;95984.25;3576860;40;20502;-62
2021/07/27 07:46:53;;;;;;;;;;;;;;;26.04;51.74;95985.00;3576206;40;19944;-60
2021/07/27 07:49:21;;;;;;;;;;;;;;;26.04;52.27;95985.00;3573425;40;19975;-61
2021/07/27 07:51:50;;;;;;;;;;;;;;;26.00;52.33;95983.38;3575713;40;19978;-65
2021/07/27 07:54:18;;;;;;;;;;;;;;;26.05;52.40;95985.81;3589958;39;19944;-61
2021/07/27 07:56:46;;;;;;;;;;;;;;;26.13;52.52;95992.19;3575812;40;19939;-61
2021/07/27 07:59:14;;;;;;;;;;;;;;;26.13;52.57;95998.34;3573018;40;19936;-62
2021/07/27 08:01:45;;;;;;;;;;;;;;;26.05;52.63;95994.69;3568820;40;19951;-62
2021/07/27 08:04:12;;;;;;;;;;;;;;;26.14;53.09;96004.56;3576253;40;19962;-62
2021/07/27 08:06:40;;;;;;;;;;;;;;;26.21;53.06;96002.00;3576106;40;19943;-62
2021/07/27 08:09:07;;;;;;;;;;;;;;;26.32;52.61;96008.38;3573149;40;19933;-63
2021/07/27 08:11:35;;;;;;;;;;;;;;;26.30;52.22;96012.59;3575476;40;19974;-62
2021/07/27 08:14:03;;;;;;;;;;;;;;;26.24;52.50;96009.41;3576549;40;19944;-62
2021/07/27 08:16:30;;;;;;;;;;;;;;;26.39;52.91;96010.44;3575896;40;19940;-62
2021/07/27 08:19:00;;;;;;;;;;;;;;;26.43;52.64;96007.81;3590244;39;19937;-62
2021/07/27 08:21:28;;;;;;;;;;;;;;;26.41;52.64;96013.59;3576384;40;19950;-63
2021/07/27 08:23:55;;;;;;;;;;;;;;;26.24;53.51;96020.22;3571559;40;19933;-61
2021/07/27 08:26:23;;;;;;;;;;;;;;;26.17;53.30;96007.31;3573301;40;19951;-62
2021/07/27 08:28:51;;;;;;;;;;;;;;;26.32;53.26;96026.56;3581858;40;19937;-62
2021/07/27 08:31:18;;;;;;;;;;;;;;;26.16;52.96;96021.19;3573582;40;20383;-62
2021/07/27 08:33:46;;;;;;;;;;;;;;;25.96;54.31;96021.16;3571481;40;19941;-62
2021/07/27 08:36:14;;;;;;;;;;;;;;;25.99;54.82;96025.84;3563277;40;19939;-62
2021/07/27 08:38:42;;;;;;;;;;;;;;;26.09;54.55;96024.53;3564812;40;20361;-61
2021/07/27 08:41:10;;;;;;;;;;;;;;;26.05;54.15;96018.25;3586399;39;19933;-61
2021/07/27 08:43:38;;;;;;;;;;;;;;;26.09;54.08;96022.59;3572780;40;19944;-63
2021/07/27 08:46:05;;;;;;;;;;;;;;;26.17;54.29;96020.03;3590934;39;19933;-69
2021/07/27 08:48:35;;;;;;;;;;;;;;;26.35;53.08;96025.81;3571710;40;19941;-62
2021/07/27 08:51:02;;;;;;;;;;;;;;;26.48;52.66;96032.66;3588338;39;19947;-61
2021/07/27 08:53:30;;;;;;;;;;;;;;;26.55;52.67;96030.09;3578779;40;19932;-61
2021/07/27 08:55:59;;;;;;;;;;;;;;;26.70;52.80;96025.72;3571248;40;19944;-62
2021/07/27 08:58:27;;;;;;;;;;;;;;;26.81;52.24;96030.59;3572937;40;20445;-62
2021/07/27 09:00:54;;;;;;;;;;;;;;;26.84;52.32;96032.56;3589236;39;19954;-63
2021/07/27 09:03:22;;;;;;;;;;;;;;;26.97;51.75;96028.56;3590161;39;19950;-62
2021/07/27 09:06:05;;;;;;;;;;;;;;;27.08;50.89;96041.50;3587721;40;20565;-62
2021/07/27 09:08:33;;;;;;;;;;;;;;;27.07;50.79;96034.53;3578209;40;19949;-62
2021/07/27 09:11:01;;;;;;;;;;;;;;;27.08;51.13;96034.16;3582876;39;20006;-60
2021/07/27 09:13:33;;;;;;;;;;;;;;;27.14;50.97;96037.34;3581968;39;19933;-64
2021/07/27 09:16:02;;;;;;;;;;;;;;;27.16;50.62;96029.63;3565796;40;19940;-61
2021/07/27 09:18:30;;;;;;;;;;;;;;;27.19;50.45;96031.63;3571134;40;19951;-62
2021/07/27 09:21:00;;;;;;;;;;;;;;;27.28;50.54;96028.69;3574441;40;19948;-64
2021/07/27 09:23:28;;;;;;;;;;;;;;;27.19;50.66;96037.03;3590770;39;19946;-61
2021/07/27 09:25:57;;;;;;;;;;;;;;;27.11;50.39;96038.06;3574801;40;19939;-61
2021/07/27 09:28:25;;;;;;;;;;;;;;;26.99;50.63;96050.66;3575446;40;20224;-63
2021/07/27 09:31:02;;;;;;;;;;;;;;;26.93;50.84;96049.38;3580637;40;19940;-63
2021/07/27 09:33:30;;;;;;;;;;;;;;;27.07;50.38;96054.28;3576710;40;19928;-63
2021/07/27 09:35:58;;;;;;;;;;;;;;;27.21;50.62;96052.91;3584445;39;19944;-62
2021/07/27 09:38:26;;;;;;;;;;;;;;;27.37;50.48;96048.16;3583866;40;19965;-62
2021/07/27 09:40:56;;;;;;;;;;;;;;;27.41;50.39;96043.59;3584521;40;19946;-60
2021/07/27 09:43:42;;;;;;;;;;;;;;;27.41;49.49;96056.34;3590772;39;20187;-62
2021/07/27 09:46:10;;;;;;;;;;;;;;;27.37;49.36;96061.72;3579734;40;20201;-63
2021/07/27 09:48:51;;;;;;;;;;;;;;;27.29;50.00;96044.56;3581959;39;19932;-62
2021/07/27 09:51:22;;;;;;;;;;;;;;;27.47;49.66;96050.28;3586114;39;20431;-62
2021/07/27 09:53:51;;;;;;;;;;;;;;;27.61;50.10;96049.75;3573812;40;19932;-62
2021/07/27 09:56:19;;;;;;;;;;;;;;;27.70;48.87;96046.00;3574584;40;19946;-62
2021/07/27 09:58:47;;;;;;;;;;;;;;;27.84;48.45;96032.66;3575622;40;19944;-61
2021/07/27 10:01:17;;;;;;;;;;;;;;;27.98;48.44;96034.00;3575811;40;19966;-62
2021/07/27 10:03:47;;;;;;;;;;;;;;;27.92;48.79;96037.03;3574569;40;19943;-62
2021/07/27 10:06:21;;;;;;;;;;;;;;;27.98;48.56;96042.13;3583849;40;19947;-64
2021/07/27 10:09:02;;;;;;;;;;;;;;;27.97;48.36;96040.56;3575260;40;19940;-66
2021/07/27 10:11:42;;;;;;;;;;;;;;;28.00;48.24;96046.03;3592372;39;19940;-66
2021/07/27 10:14:11;;;;;;;;;;;;;;;28.06;48.04;96049.97;3582290;40;19954;-66
2021/07/27 10:16:39;;;;;;;;;;;;;;;28.23;47.18;96045.19;3565912;40;19954;-66
2021/07/27 10:19:25;;;;;;;;;;;;;;;28.28;47.08;96050.31;3582985;39;19946;-66
2021/07/27 10:22:03;;;;;;;;;;;;;;;28.25;47.26;96039.44;3572470;40;20063;-64
2021/07/27 10:24:41;;;;;;;;;;;;;;;28.38;46.55;96048.88;3580103;40;19944;-63
2021/07/27 10:27:10;;;;;;;;;;;;;;;28.46;46.55;96044.31;3583773;39;19937;-62
2021/07/27 10:29:37;;;;;;;;;;;;;;;28.46;46.44;96038.88;3586903;39;20363;-62
2021/07/27 10:32:12;;;;;;;;;;;;;;;28.64;45.63;96052.66;3580275;39;19974;-64
2021/07/27 10:34:43;;;;;;;;;;;;;;;28.65;46.08;96056.94;3588984;39;19958;-62
2021/07/27 10:37:12;;;;;;;;;;;;;;;28.56;46.53;96067.31;3574284;40;19939;-63
2021/07/27 10:39:46;;;;;;;;;;;;;;;28.41;46.93;96064.41;3574367;40;19933;-63
2021/07/27 10:42:14;;;;;;;;;;;;;;;28.26;48.08;96059.94;3589801;39;19952;-63
2021/07/27 10:44:42;;;;;;;;;;;;;;;28.30;47.67;96061.56;3572148;40;19947;-63
2021/07/27 10:47:17;;;;;;;;;;;;;;;28.28;48.39;96069.31;3570903;40;19992;-63
2021/07/27 10:49:45;;;;;;;;;;;;;;;28.40;48.13;96070.97;3576378;40;19941;-62
2021/07/27 10:52:12;;;;;;;;;;;;;;;28.44;47.72;96071.81;3585991;39;19940;-63
2021/07/27 10:54:43;;;;;;;;;;;;;;;28.35;48.64;96057.75;3570493;40;19940;-64
2021/07/27 10:57:10;;;;;;;;;;;;;;;28.32;47.86;96058.50;3567050;40;19941;-61
2021/07/27 10:59:45;;;;;;;;;;;;;;;28.47;46.27;96065.66;3573011;40;19932;-61
2021/07/27 11:02:13;;;;;;;;;;;;;;;28.57;45.63;96068.88;3590074;39;19947;-61
2021/07/27 11:04:41;;;;;;;;;;;;;;;28.69;45.19;96058.53;3574441;40;19936;-61
2021/07/27 11:07:12;;;;;;;;;;;;;;;28.82;44.96;96059.09;3568021;40;19962;-62
2021/07/27 11:09:46;;;;;;;;;;;;;;;28.91;44.37;96060.72;3573841;40;19949;-61
2021/07/27 11:12:24;;;;;;;;;;;;;;;29.05;45.07;96060.88;3577155;40;19951;-61
2021/07/27 11:15:10;;;;;;;;;;;;;;;28.96;45.54;96053.03;3573410;40;19932;-62
2021/07/27 11:17:48;;;;;;;;;;;;;;;29.12;43.91;96058.22;3576929;40;19941;-62
2021/07/27 11:20:20;;;;;;;;;;;;;;;29.27;44.29;96040.13;3580682;39;19933;-63
2021/07/27 11:22:49;;;;;;;;;;;;;;;29.32;42.48;96030.84;3590948;39;19955;-63
2021/07/27 11:25:17;;;;;;;;;;;;;;;29.26;42.52;96035.06;3572328;40;20627;-64
2021/07/27 11:27:45;;;;;;;;;;;;;;;29.25;43.46;96036.19;3573491;40;20267;-64
2021/07/27 11:30:13;;;;;;;;;;;;;;;29.43;42.79;96039.88;3579574;40;21568;-64
2021/07/27 11:32:43;;;;;;;;;;;;;;;29.48;42.58;96046.16;3590129;39;19936;-65
2021/07/27 11:35:15;;;;;;;;;;;;;;;29.79;41.57;96052.16;3573823;40;19983;-65
2021/07/27 11:37:44;;;;;;;;;;;;;;;29.90;42.25;96050.31;3584366;40;19942;-66
2021/07/27 11:40:22;;;;;;;;;;;;;;;29.92;42.96;96042.56;3573932;40;20553;-66
2021/07/27 11:43:09;;;;;;;;;;;;;;;29.73;43.15;96038.16;3571025;40;19932;-63
2021/07/27 11:45:41;;;;;;;;;;;;;;;29.69;43.81;96034.63;3572048;40;19970;-63
2021/07/27 11:48:09;;;;;;;;;;;;;;;29.41;42.97;96027.84;3582403;40;19946;-63
2021/07/27 11:50:41;;;;;;;;;;;;;;;29.45;43.32;96045.72;3569330;40;19936;-64
2021/07/27 11:53:23;;;;;;;;;;;;;;;29.29;43.84;96045.94;3588850;39;19941;-65
2021/07/27 11:55:50;;;;;;;;;;;;;;;29.12;44.39;96050.06;3582522;40;20289;-63
2021/07/27 11:58:28;;;;;;;;;;;;;;;28.97;44.44;96051.88;3572502;40;19952;-62
2021/07/27 12:00:56;;;;;;;;;;;;;;;28.79;45.50;96050.91;3583951;40;19944;-63
2021/07/27 12:03:25;;;;;;;;;;;;;;;28.70;46.29;96051.19;3583932;40;20247;-63
2021/07/27 12:05:55;;;;;;;;;;;;;;;28.62;46.15;96036.75;3582837;39;19944;-63
2021/07/27 12:08:23;;;;;;;;;;;;;;;28.74;46.46;96029.53;3574663;40;19939;-62
2021/07/27 12:10:51;;;;;;;;;;;;;;;29.04;45.09;96026.72;3591965;39;19932;-64
2021/07/27 12:13:18;;;;;;;;;;;;;;;29.14;45.25;96031.47;3583900;40;19939;-63
2021/07/27 12:15:46;;;;;;;;;;;;;;;29.31;45.01;96029.28;3584887;39;20316;-63
2021/07/27 12:18:15;;;;;;;;;;;;;;;29.48;44.59;96021.69;3575394;40;19935;-62
2021/07/27 12:20:43;;;;;;;;;;;;;;;29.60;43.38;96018.66;3575618;40;19983;-64
2021/07/27 12:23:13;;;;;;;;;;;;;;;29.62;43.19;96021.75;3575465;40;19933;-63
2021/07/27 12:25:59;;;;;;;;;;;;;;;29.78;41.03;96013.34;3572869;40;19941;-63
2021/07/27 12:28:26;;;;;;;;;;;;;;;29.90;40.09;96015.75;3582875;39;20339;-63
2021/07/27 12:30:53;;;;;;;;;;;;;;;29.97;42.10;96006.84;3585506;40;19967;-63
2021/07/27 12:33:21;;;;;;;;;;;;;;;29.75;42.53;96008.66;3570509;40;19958;-62
2021/07/27 12:35:49;;;;;;;;;;;;;;;29.67;42.04;96010.53;3577040;40;19942;-64
2021/07/27 12:38:16;;;;;;;;;;;;;;;29.59;41.95;95996.13;3584339;40;20041;-62
2021/07/27 12:40:44;;;;;;;;;;;;;;;29.51;42.16;95999.16;3579209;40;20213;-62
2021/07/27 12:43:12;;;;;;;;;;;;;;;29.76;41.62;96004.78;3584261;40;19962;-63
2021/07/27 12:45:43;;;;;;;;;;;;;;;29.86;40.85;95981.50;3586520;40;19936;-61
2021/07/27 12:48:11;;;;;;;;;;;;;;;29.91;40.57;95987.38;3572181;40;19950;-64
2021/07/27 12:50:39;;;;;;;;;;;;;;;29.83;38.67;95995.88;3579687;39;19946;-62
2021/07/27 12:53:06;;;;;;;;;;;;;;;29.84;39.42;96006.38;3575364;40;20034;-62
2021/07/27 12:55:34;;;;;;;;;;;;;;;29.95;40.36;96003.75;3576414;40;19944;-63
2021/07/27 12:58:02;;;;;;;;;;;;;;;30.14;40.08;96001.88;3583221;39;19939;-62
2021/07/27 13:00:30;;;;;;;;;;;;;;;30.37;40.98;95998.88;3582179;39;20661;-62
2021/07/27 13:02:58;;;;;;;;;;;;;;;30.41;39.52;96004.31;3584487;39;19931;-62
2021/07/27 13:05:25;;;;;;;;;;;;;;;30.42;38.46;96003.16;3572089;40;20423;-63
2021/07/27 13:07:56;;;;;;;;;;;;;;;30.25;38.89;96010.88;3574262;39;19944;-63
2021/07/27 13:10:23;;;;;;;;;;;;;;;30.18;39.39;96008.13;3584967;40;19932;-63
2021/07/27 13:12:51;;;;;;;;;;;;;;;30.27;38.41;96005.81;3579569;39;19940;-63
2021/07/27 13:15:18;;;;;;;;;;;;;;;30.38;38.89;96003.91;3584855;40;20302;-63